Time;durP1;ratioP1;P1;durP2;ratioP2;P2;SDS_P1;SDS_P2;PMS_P1;PMS_P2;Temp;Humidity;BMP_temperature;BMP_pressure;BME280_temperature;BME280_humidity;BME280_pressure;Samples;Min_cycle;Max_cycle;Signal;HPM_P1;HPM_P2
2021/09/05 00:00:30;;;;;;;;;;;14.40;99.90;;;;;;5095918;28;19946;-83
2021/09/05 00:02:55;;;;;;;;;;;14.40;99.90;;;;;;5124248;27;20293;-83
2021/09/05 00:05:21;;;;;;;;;;;14.40;99.90;;;;;;5120102;27;20025;-83
2021/09/05 00:07:46;;;;;;;;;;;14.40;99.90;;;;;;5116560;27;19927;-83
2021/09/05 00:10:12;;;;;;;;;;;14.40;99.90;;;;;;5094564;28;19923;-83
2021/09/05 00:12:38;;;;;;;;;;;14.40;99.90;;;;;;5116880;27;20333;-83
2021/09/05 00:15:05;;;;;;;;;;;14.30;99.90;;;;;;5120326;27;19959;-83
2021/09/05 00:17:31;;;;;;;;;;;14.40;99.90;;;;;;5118264;27;19924;-83
2021/09/05 00:19:56;;;;;;;;;;;14.40;99.90;;;;;;5106789;27;19932;-83
2021/09/05 00:22:22;;;;;;;;;;;14.30;99.90;;;;;;5123962;27;20022;-83
2021/09/05 00:24:47;;;;;;;;;;;14.30;99.90;;;;;;5068705;28;19920;-83
2021/09/05 00:27:13;;;;;;;;;;;14.40;99.90;;;;;;5120396;27;19965;-83
2021/09/05 00:29:38;;;;;;;;;;;14.30;99.90;;;;;;5118385;27;20352;-83
2021/09/05 00:32:04;;;;;;;;;;;14.30;99.90;;;;;;5107222;28;19928;-83
2021/09/05 00:34:30;;;;;;;;;;;14.30;99.90;;;;;;5092152;27;20014;-83
2021/09/05 00:36:55;;;;;;;;;;;14.30;99.90;;;;;;5099563;28;20370;-83
2021/09/05 00:39:21;;;;;;;;;;;14.20;99.90;;;;;;5111280;27;19928;-83
2021/09/05 00:41:47;;;;;;;;;;;14.30;99.90;;;;;;5121317;27;20023;-83
2021/09/05 00:44:13;;;;;;;;;;;14.30;99.90;;;;;;5120753;27;19967;-83
2021/09/05 00:46:39;;;;;;;;;;;14.30;99.90;;;;;;5099664;28;20006;-82
2021/09/05 00:49:06;;;;;;;;;;;14.20;99.90;;;;;;5113541;27;20581;-83
2021/09/05 00:51:33;;;;;;;;;;;14.20;99.90;;;;;;5069055;28;20042;-83
2021/09/05 00:54:00;;;;;;;;;;;14.20;99.90;;;;;;5123042;27;19924;-83
2021/09/05 00:56:29;;;;;;;;;;;14.20;99.90;;;;;;5105069;28;20367;-82
2021/09/05 00:58:55;;;;;;;;;;;14.20;99.90;;;;;;5125776;28;19934;-83
2021/09/05 01:01:22;;;;;;;;;;;14.20;99.90;;;;;;5102884;28;20259;-83
2021/09/05 01:03:48;;;;;;;;;;;14.20;99.90;;;;;;5108968;28;19923;-83
2021/09/05 01:06:14;;;;;;;;;;;14.20;99.90;;;;;;5094499;28;20284;-83
2021/09/05 01:08:39;;;;;;;;;;;14.20;99.90;;;;;;5124340;28;19927;-83
2021/09/05 01:11:05;;;;;;;;;;;14.20;99.90;;;;;;5115468;28;20029;-83
2021/09/05 01:13:31;;;;;;;;;;;14.20;99.90;;;;;;5105752;28;19959;-83
2021/09/05 01:15:56;;;;;;;;;;;14.20;99.90;;;;;;5106238;28;19988;-83
2021/09/05 01:18:22;;;;;;;;;;;14.20;99.90;;;;;;5103083;28;19964;-83
2021/09/05 01:20:47;;;;;;;;;;;14.20;99.90;;;;;;5122978;28;19920;-83
2021/09/05 01:23:13;;;;;;;;;;;14.20;99.90;;;;;;5122242;28;19935;-83
2021/09/05 01:25:40;;;;;;;;;;;14.10;99.90;;;;;;5117264;28;19965;-83
2021/09/05 01:28:09;;;;;;;;;;;14.20;99.90;;;;;;5089418;28;19973;-82
2021/09/05 01:30:35;;;;;;;;;;;14.20;99.90;;;;;;5098064;28;19920;-82
2021/09/05 01:33:01;;;;;;;;;;;14.20;99.90;;;;;;5079097;28;19931;-83
2021/09/05 01:35:26;;;;;;;;;;;14.20;99.90;;;;;;5105938;28;19916;-82
2021/09/05 01:37:52;;;;;;;;;;;14.10;99.90;;;;;;5088924;28;19972;-82
2021/09/05 01:40:18;;;;;;;;;;;14.10;99.90;;;;;;5073057;28;20383;-83
2021/09/05 01:42:43;;;;;;;;;;;14.10;99.90;;;;;;5139198;27;20293;-82
2021/09/05 01:45:09;;;;;;;;;;;14.10;99.90;;;;;;5087565;28;20452;-83
2021/09/05 01:47:34;;;;;;;;;;;14.00;99.90;;;;;;5139714;27;20012;-82
2021/09/05 01:50:00;;;;;;;;;;;14.00;99.90;;;;;;5074865;28;19948;-82
2021/09/05 01:52:26;;;;;;;;;;;14.00;99.90;;;;;;5092305;28;19920;-82
2021/09/05 01:54:51;;;;;;;;;;;14.00;99.90;;;;;;5089452;28;20016;-83
2021/09/05 01:57:17;;;;;;;;;;;14.00;99.90;;;;;;5110372;28;19924;-82
2021/09/05 01:59:42;;;;;;;;;;;14.00;99.90;;;;;;5125541;27;19949;-82
2021/09/05 02:02:08;;;;;;;;;;;14.00;99.90;;;;;;5110210;27;19931;-83
2021/09/05 02:04:33;;;;;;;;;;;14.00;99.90;;;;;;5061814;28;19920;-82
2021/09/05 02:06:59;;;;;;;;;;;13.90;99.90;;;;;;5113376;27;19927;-82
2021/09/05 02:09:25;;;;;;;;;;;13.90;99.90;;;;;;5117863;27;19928;-83
2021/09/05 02:11:52;;;;;;;;;;;13.90;99.90;;;;;;5110641;28;20272;-83
2021/09/05 02:14:17;;;;;;;;;;;13.90;99.90;;;;;;5093322;28;19931;-83
2021/09/05 02:16:43;;;;;;;;;;;13.90;99.90;;;;;;5091777;28;19923;-83
2021/09/05 02:19:08;;;;;;;;;;;13.90;99.90;;;;;;5125805;27;19930;-82
2021/09/05 02:21:34;;;;;;;;;;;13.90;99.90;;;;;;5092647;28;19924;-83
2021/09/05 02:24:00;;;;;;;;;;;13.90;99.90;;;;;;5092186;28;19942;-83
2021/09/05 02:26:25;;;;;;;;;;;13.90;99.90;;;;;;5068252;28;19963;-83
2021/09/05 02:28:51;;;;;;;;;;;13.90;99.90;;;;;;5093219;28;19920;-83
2021/09/05 02:31:16;;;;;;;;;;;13.90;99.90;;;;;;5090316;28;20438;-82
2021/09/05 02:33:42;;;;;;;;;;;13.90;99.90;;;;;;5075840;28;20360;-82
2021/09/05 02:36:07;;;;;;;;;;;13.90;99.90;;;;;;5110048;28;20007;-82
2021/09/05 02:38:33;;;;;;;;;;;13.90;99.90;;;;;;5109415;28;19934;-83
2021/09/05 02:40:59;;;;;;;;;;;13.90;99.90;;;;;;5093283;28;19920;-83
2021/09/05 02:43:24;;;;;;;;;;;13.90;99.90;;;;;;5127267;27;19923;-82
2021/09/05 02:45:50;;;;;;;;;;;13.90;99.90;;;;;;5126464;27;19920;-83
2021/09/05 02:48:16;;;;;;;;;;;13.90;99.90;;;;;;5075392;28;20015;-82
2021/09/05 02:50:41;;;;;;;;;;;13.90;99.90;;;;;;5076065;28;19927;-82
2021/09/05 02:53:07;;;;;;;;;;;13.80;99.90;;;;;;5074840;28;19927;-82
2021/09/05 02:55:32;;;;;;;;;;;13.80;99.90;;;;;;5108437;28;19923;-83
2021/09/05 02:57:58;;;;;;;;;;;13.90;99.90;;;;;;5109824;28;20026;-82
2021/09/05 03:00:23;;;;;;;;;;;13.90;99.90;;;;;;5102186;28;19931;-82
2021/09/05 03:02:51;;;;;;;;;;;13.80;99.90;;;;;;5105168;27;19943;-82
2021/09/05 03:05:17;;;;;;;;;;;13.80;99.90;;;;;;5112293;27;19920;-82
2021/09/05 03:07:42;;;;;;;;;;;13.80;99.90;;;;;;5108847;28;19962;-83
2021/09/05 03:10:08;;;;;;;;;;;13.80;99.90;;;;;;5091142;28;19927;-83
2021/09/05 03:12:34;;;;;;;;;;;13.80;99.90;;;;;;5075783;28;19931;-83
2021/09/05 03:14:59;;;;;;;;;;;13.80;99.90;;;;;;5126535;27;19959;-83
2021/09/05 03:17:26;;;;;;;;;;;13.80;99.90;;;;;;5107165;28;19973;-82
2021/09/05 03:19:51;;;;;;;;;;;13.80;99.90;;;;;;5109712;28;19935;-82
2021/09/05 03:22:17;;;;;;;;;;;13.80;99.90;;;;;;5091524;28;19923;-82
2021/09/05 03:24:42;;;;;;;;;;;13.80;99.90;;;;;;5088211;28;20161;-82
2021/09/05 03:27:08;;;;;;;;;;;13.80;99.90;;;;;;5122988;27;19931;-82
2021/09/05 03:29:34;;;;;;;;;;;13.70;99.90;;;;;;5071857;28;19920;-82
2021/09/05 03:31:59;;;;;;;;;;;13.80;99.90;;;;;;5126357;27;19940;-82
2021/09/05 03:34:25;;;;;;;;;;;13.80;99.90;;;;;;5126266;27;20264;-82
2021/09/05 03:36:50;;;;;;;;;;;13.70;99.90;;;;;;5126673;27;19930;-82
2021/09/05 03:39:16;;;;;;;;;;;13.70;99.90;;;;;;5090060;28;20298;-82
2021/09/05 03:41:41;;;;;;;;;;;13.70;99.90;;;;;;5108069;28;20020;-82
2021/09/05 03:44:07;;;;;;;;;;;13.70;99.90;;;;;;5109648;28;19931;-82
2021/09/05 03:46:32;;;;;;;;;;;13.70;99.90;;;;;;5107385;28;19919;-83
2021/09/05 03:48:58;;;;;;;;;;;13.60;99.90;;;;;;5125623;27;19920;-82
2021/09/05 03:51:24;;;;;;;;;;;13.60;99.90;;;;;;5109092;28;19920;-83
2021/09/05 03:53:49;;;;;;;;;;;13.60;99.90;;;;;;5107079;28;19924;-82
2021/09/05 03:56:15;;;;;;;;;;;13.60;99.90;;;;;;5107588;28;20028;-82
2021/09/05 03:58:40;;;;;;;;;;;13.60;99.90;;;;;;5125116;27;19957;-82
2021/09/05 04:01:06;;;;;;;;;;;13.60;99.90;;;;;;5119326;27;19924;-83
2021/09/05 04:03:32;;;;;;;;;;;13.70;99.90;;;;;;5107905;28;20142;-83
2021/09/05 04:05:57;;;;;;;;;;;13.70;99.90;;;;;;5108246;28;19973;-82
2021/09/05 04:08:31;;;;;;;;;;;13.70;99.90;;;;;;5106304;28;19920;-83
2021/09/05 04:10:57;;;;;;;;;;;13.70;99.90;;;;;;5075842;28;19924;-83
2021/09/05 04:13:22;;;;;;;;;;;13.70;99.90;;;;;;5074740;28;20396;-83
2021/09/05 04:15:48;;;;;;;;;;;13.70;99.90;;;;;;5123819;27;20553;-82
2021/09/05 04:18:13;;;;;;;;;;;13.70;99.90;;;;;;5100949;28;19920;-82
2021/09/05 04:20:39;;;;;;;;;;;13.70;99.90;;;;;;5106380;28;19924;-82
2021/09/05 04:23:05;;;;;;;;;;;13.70;99.90;;;;;;5106223;28;19927;-82
2021/09/05 04:25:30;;;;;;;;;;;13.70;99.90;;;;;;5091452;28;19970;-82
2021/09/05 04:27:56;;;;;;;;;;;13.60;99.90;;;;;;5108137;28;20286;-82
2021/09/05 04:30:21;;;;;;;;;;;13.60;99.90;;;;;;5106238;28;20371;-82
2021/09/05 04:32:47;;;;;;;;;;;13.60;99.90;;;;;;5125127;27;19932;-82
2021/09/05 04:35:13;;;;;;;;;;;13.50;99.90;;;;;;5107909;28;20374;-83
2021/09/05 04:37:38;;;;;;;;;;;13.50;99.90;;;;;;5123181;27;20302;-82
2021/09/05 04:40:05;;;;;;;;;;;13.50;99.90;;;;;;5090839;28;19923;-82
2021/09/05 04:42:30;;;;;;;;;;;13.40;99.90;;;;;;5090683;28;19919;-82
2021/09/05 04:44:56;;;;;;;;;;;13.40;99.90;;;;;;5090105;28;20405;-82
2021/09/05 04:47:21;;;;;;;;;;;13.40;99.90;;;;;;5090702;28;19924;-82
2021/09/05 04:49:47;;;;;;;;;;;13.40;99.90;;;;;;5070295;28;20405;-82
2021/09/05 04:52:13;;;;;;;;;;;13.30;99.90;;;;;;5105632;28;20242;-82
2021/09/05 04:54:38;;;;;;;;;;;13.30;99.90;;;;;;5070681;28;19977;-82
2021/09/05 04:57:04;;;;;;;;;;;13.30;99.90;;;;;;5089929;28;20400;-82
2021/09/05 04:59:30;;;;;;;;;;;13.30;99.90;;;;;;5105713;28;19935;-82
2021/09/05 05:01:55;;;;;;;;;;;13.30;99.90;;;;;;5085522;28;19924;-82
2021/09/05 05:04:21;;;;;;;;;;;13.30;99.90;;;;;;5107683;28;19920;-82
2021/09/05 05:06:46;;;;;;;;;;;13.30;99.90;;;;;;5075168;28;19919;-82
2021/09/05 05:09:12;;;;;;;;;;;13.20;99.90;;;;;;5098783;27;20020;-82
2021/09/05 05:11:39;;;;;;;;;;;13.20;99.90;;;;;;5089990;28;19993;-82
2021/09/05 05:14:04;;;;;;;;;;;13.20;99.90;;;;;;5112619;27;19965;-82
2021/09/05 05:16:30;;;;;;;;;;;13.20;99.90;;;;;;5117044;27;20014;-82
2021/09/05 05:18:56;;;;;;;;;;;13.20;99.90;;;;;;5088011;28;19931;-82
2021/09/05 05:21:23;;;;;;;;;;;13.20;99.90;;;;;;5126022;27;19924;-82
2021/09/05 05:23:49;;;;;;;;;;;13.10;99.90;;;;;;5120341;27;19920;-82
2021/09/05 05:26:14;;;;;;;;;;;13.10;99.90;;;;;;5100505;28;19923;-82
2021/09/05 05:28:40;;;;;;;;;;;13.10;99.90;;;;;;5094043;28;19920;-82
2021/09/05 05:31:05;;;;;;;;;;;13.10;99.90;;;;;;5093686;28;19920;-82
2021/09/05 05:33:31;;;;;;;;;;;13.20;99.90;;;;;;5093678;28;20835;-82
2021/09/05 05:35:57;;;;;;;;;;;13.20;99.90;;;;;;5128021;27;19924;-82
2021/09/05 05:38:23;;;;;;;;;;;13.10;99.90;;;;;;5127822;27;19928;-82
2021/09/05 05:40:49;;;;;;;;;;;13.10;99.90;;;;;;5110664;28;19919;-82
2021/09/05 05:43:15;;;;;;;;;;;13.10;99.90;;;;;;5094463;28;19927;-82
2021/09/05 05:45:41;;;;;;;;;;;13.20;99.90;;;;;;5092849;28;19923;-82
2021/09/05 05:48:07;;;;;;;;;;;13.20;99.90;;;;;;5111116;28;20374;-82
2021/09/05 05:50:32;;;;;;;;;;;13.20;99.90;;;;;;5123768;27;19924;-82
2021/09/05 05:52:58;;;;;;;;;;;13.20;99.90;;;;;;5073153;28;19971;-82
2021/09/05 05:55:24;;;;;;;;;;;13.20;99.90;;;;;;5110283;28;19920;-82
2021/09/05 05:57:49;;;;;;;;;;;13.30;99.90;;;;;;5104068;28;20337;-82
2021/09/05 06:00:15;;;;;;;;;;;13.30;99.90;;;;;;5089135;28;19923;-82
2021/09/05 06:02:41;;;;;;;;;;;13.30;99.90;;;;;;5122458;27;19949;-82
2021/09/05 06:05:06;;;;;;;;;;;13.30;99.90;;;;;;5120520;27;19935;-82
2021/09/05 06:07:32;;;;;;;;;;;13.40;99.90;;;;;;5092138;28;19923;-82
2021/09/05 06:09:58;;;;;;;;;;;13.40;99.90;;;;;;5090783;28;20006;-82
2021/09/05 06:12:23;;;;;;;;;;;13.40;99.90;;;;;;5093153;28;19944;-82
2021/09/05 06:14:49;;;;;;;;;;;13.40;99.90;;;;;;5090789;28;19920;-82
2021/09/05 06:17:14;;;;;;;;;;;13.50;99.90;;;;;;5109961;28;19923;-82
2021/09/05 06:19:40;;;;;;;;;;;13.50;99.90;;;;;;5114417;27;19928;-82
2021/09/05 06:22:06;;;;;;;;;;;13.50;99.90;;;;;;5090210;28;20383;-83
2021/09/05 06:24:32;;;;;;;;;;;13.60;99.90;;;;;;5109495;28;19927;-82
2021/09/05 06:26:57;;;;;;;;;;;13.60;99.90;;;;;;5107987;27;19928;-82
2021/09/05 06:29:23;;;;;;;;;;;13.60;99.90;;;;;;5091048;28;20199;-82
2021/09/05 06:31:49;;;;;;;;;;;13.60;99.90;;;;;;5107925;28;19927;-82
2021/09/05 06:34:14;;;;;;;;;;;13.70;99.90;;;;;;5075102;28;19970;-83
2021/09/05 06:36:40;;;;;;;;;;;13.70;99.90;;;;;;5107481;28;20442;-83
2021/09/05 06:39:05;;;;;;;;;;;13.80;99.90;;;;;;5109721;28;19930;-82
2021/09/05 06:41:31;;;;;;;;;;;13.80;99.90;;;;;;5106819;28;20801;-82
2021/09/05 06:43:57;;;;;;;;;;;13.80;99.90;;;;;;5121762;27;19923;-82
2021/09/05 06:46:23;;;;;;;;;;;13.90;99.90;;;;;;5109116;28;19930;-82
2021/09/05 06:48:49;;;;;;;;;;;13.90;99.90;;;;;;5108605;28;20264;-82
2021/09/05 06:51:15;;;;;;;;;;;13.90;99.90;;;;;;5107344;28;19928;-82
2021/09/05 06:53:41;;;;;;;;;;;14.00;99.90;;;;;;5092028;28;19916;-82
2021/09/05 06:56:06;;;;;;;;;;;14.00;99.90;;;;;;5092284;28;19931;-83
2021/09/05 06:58:32;;;;;;;;;;;14.10;99.90;;;;;;5108580;28;20345;-85
2021/09/05 07:00:57;;;;;;;;;;;14.10;99.90;;;;;;5090748;28;20014;-85
2021/09/05 07:03:23;;;;;;;;;;;14.10;99.90;;;;;;5109337;28;20027;-88
2021/09/05 07:05:49;;;;;;;;;;;14.20;99.90;;;;;;5125540;27;19923;-89
2021/09/05 07:08:14;;;;;;;;;;;14.20;99.90;;;;;;5092982;28;20366;-91
2021/09/05 07:10:40;;;;;;;;;;;14.30;99.90;;;;;;5109417;28;19923;-88
2021/09/05 07:13:06;;;;;;;;;;;14.30;99.90;;;;;;5091199;28;20028;-85
2021/09/05 07:15:31;;;;;;;;;;;14.40;99.90;;;;;;5097887;28;19924;-85
2021/09/05 07:17:57;;;;;;;;;;;14.40;99.90;;;;;;5109729;28;20291;-86
2021/09/05 07:20:23;;;;;;;;;;;14.40;99.90;;;;;;5123394;27;20030;-86
2021/09/05 07:22:48;;;;;;;;;;;14.40;99.90;;;;;;5126153;27;19923;-85
2021/09/05 07:25:14;;;;;;;;;;;14.50;99.90;;;;;;5097955;28;21126;-85
2021/09/05 07:27:39;;;;;;;;;;;14.50;99.90;;;;;;5074451;28;19920;-86
2021/09/05 07:30:06;;;;;;;;;;;14.60;99.90;;;;;;5091948;28;19927;-85
2021/09/05 07:32:32;;;;;;;;;;;14.60;99.90;;;;;;5108593;28;19971;-86
2021/09/05 07:34:57;;;;;;;;;;;14.60;99.90;;;;;;5090045;28;20117;-86
2021/09/05 07:37:23;;;;;;;;;;;14.70;99.90;;;;;;5091973;28;19931;-85
2021/09/05 07:39:48;;;;;;;;;;;14.80;99.90;;;;;;5109286;28;19924;-85
2021/09/05 07:42:14;;;;;;;;;;;14.80;99.90;;;;;;5106367;28;19934;-85
2021/09/05 07:44:39;;;;;;;;;;;14.80;99.90;;;;;;5090759;28;20294;-86
2021/09/05 07:47:05;;;;;;;;;;;14.90;99.90;;;;;;5106943;28;19927;-87
2021/09/05 07:49:31;;;;;;;;;;;14.90;99.90;;;;;;5070372;28;19931;-90
2021/09/05 07:51:56;;;;;;;;;;;15.00;99.90;;;;;;5070185;28;20026;-87
2021/09/05 07:54:22;;;;;;;;;;;15.00;99.90;;;;;;5100535;28;19928;-87
2021/09/05 07:56:48;;;;;;;;;;;15.10;99.90;;;;;;5105179;28;19923;-89
2021/09/05 07:59:13;;;;;;;;;;;15.10;99.90;;;;;;5091499;28;20362;-89
2021/09/05 08:01:39;;;;;;;;;;;15.10;99.90;;;;;;5106070;28;20403;-88
2021/09/05 08:04:04;;;;;;;;;;;15.20;99.90;;;;;;5099346;28;20381;-88
2021/09/05 08:06:30;;;;;;;;;;;15.20;99.90;;;;;;5086429;28;19945;-89
2021/09/05 08:08:57;;;;;;;;;;;15.30;99.90;;;;;;5107683;28;19937;-88
2021/09/05 08:11:23;;;;;;;;;;;15.30;99.90;;;;;;5090681;28;19931;-89
2021/09/05 08:13:49;;;;;;;;;;;15.30;99.90;;;;;;5106814;28;19953;-90
2021/09/05 08:16:14;;;;;;;;;;;15.40;99.90;;;;;;5073354;28;20025;-85
2021/09/05 08:18:40;;;;;;;;;;;15.40;99.90;;;;;;5124818;27;19927;-85
2021/09/05 08:21:07;;;;;;;;;;;15.50;99.90;;;;;;5122419;27;20630;-85
2021/09/05 08:23:32;;;;;;;;;;;15.50;99.90;;;;;;5089605;28;20288;-85
2021/09/05 08:25:58;;;;;;;;;;;15.60;99.90;;;;;;5107561;28;19924;-84
2021/09/05 08:28:24;;;;;;;;;;;15.60;99.90;;;;;;5068549;28;19920;-84
2021/09/05 08:30:49;;;;;;;;;;;15.70;99.90;;;;;;5067424;28;19931;-84
2021/09/05 08:33:16;;;;;;;;;;;15.80;99.90;;;;;;5103286;28;19930;-84
2021/09/05 08:35:41;;;;;;;;;;;15.80;99.90;;;;;;5103079;28;20379;-82
2021/09/05 08:38:08;;;;;;;;;;;15.80;99.90;;;;;;5091054;28;19973;-82
2021/09/05 08:40:39;;;;;;;;;;;15.90;99.90;;;;;;5107564;28;19923;-83
2021/09/05 08:43:05;;;;;;;;;;;16.00;99.90;;;;;;5104170;28;19923;-83
2021/09/05 08:45:31;;;;;;;;;;;16.10;99.90;;;;;;5087228;28;19924;-83
2021/09/05 08:47:57;;;;;;;;;;;16.10;99.90;;;;;;5106709;28;20390;-85
2021/09/05 08:50:24;;;;;;;;;;;16.20;99.90;;;;;;5088333;28;20022;-84
2021/09/05 08:52:50;;;;;;;;;;;16.20;99.90;;;;;;5103118;28;19927;-81
2021/09/05 08:55:16;;;;;;;;;;;16.30;99.90;;;;;;5102621;28;19920;-81
2021/09/05 08:57:41;;;;;;;;;;;16.40;99.90;;;;;;5089618;28;20294;-81
2021/09/05 09:00:07;;;;;;;;;;;16.40;99.90;;;;;;5095279;28;19931;-81
2021/09/05 09:02:46;;;;;;;;;;;16.50;99.90;;;;;;5113170;28;19923;-84
2021/09/05 09:05:13;;;;;;;;;;;16.50;99.90;;;;;;5105898;28;19924;-85
2021/09/05 09:07:45;;;;;;;;;;;16.60;99.90;;;;;;5089695;28;19972;-84
2021/09/05 09:10:11;;;;;;;;;;;16.60;99.90;;;;;;5088698;28;19923;-84
2021/09/05 09:12:41;;;;;;;;;;;16.60;99.90;;;;;;5095926;28;19930;-84
2021/09/05 09:15:18;;;;;;;;;;;16.70;99.90;;;;;;5095239;28;20012;-84
2021/09/05 09:17:44;;;;;;;;;;;16.80;99.90;;;;;;5107709;28;20413;-83
2021/09/05 09:20:10;;;;;;;;;;;16.80;99.90;;;;;;5088324;28;19975;-84
2021/09/05 09:22:35;;;;;;;;;;;16.80;99.90;;;;;;5106996;28;20398;-83
2021/09/05 09:25:01;;;;;;;;;;;16.80;99.90;;;;;;5121244;28;19931;-84
2021/09/05 09:27:27;;;;;;;;;;;16.90;99.90;;;;;;5088671;28;19919;-84
2021/09/05 09:29:54;;;;;;;;;;;16.90;99.90;;;;;;5088991;28;20435;-84
2021/09/05 09:32:22;;;;;;;;;;;16.90;99.90;;;;;;5088191;28;19924;-84
2021/09/05 09:34:48;;;;;;;;;;;17.00;99.90;;;;;;5112651;28;20351;-85
2021/09/05 09:37:18;;;;;;;;;;;17.00;99.90;;;;;;5087356;28;19928;-85
2021/09/05 09:39:51;;;;;;;;;;;17.10;99.90;;;;;;5087711;28;19938;-85
2021/09/05 09:42:33;;;;;;;;;;;17.10;99.90;;;;;;5085540;28;20014;-85
2021/09/05 09:44:59;;;;;;;;;;;17.10;99.90;;;;;;5088203;28;20438;-85
2021/09/05 09:47:35;;;;;;;;;;;17.20;99.90;;;;;;5102739;28;19928;-85
2021/09/05 09:50:01;;;;;;;;;;;17.20;99.90;;;;;;5101813;28;20138;-84
2021/09/05 09:52:27;;;;;;;;;;;17.30;99.90;;;;;;5118363;28;20013;-85
2021/09/05 09:54:53;;;;;;;;;;;17.30;99.90;;;;;;5109727;28;19927;-85
2021/09/05 09:57:18;;;;;;;;;;;17.40;99.90;;;;;;5104847;28;20394;-86
2021/09/05 09:59:44;;;;;;;;;;;17.40;99.90;;;;;;5069378;28;20057;-82
2021/09/05 10:02:13;;;;;;;;;;;17.40;99.90;;;;;;5068427;28;19938;-82
2021/09/05 10:04:39;;;;;;;;;;;17.40;99.90;;;;;;5131858;27;19973;-83
2021/09/05 10:07:05;;;;;;;;;;;17.40;99.90;;;;;;5070007;27;20394;-82
2021/09/05 10:09:31;;;;;;;;;;;17.50;99.90;;;;;;5095994;28;19946;-83
2021/09/05 10:11:56;;;;;;;;;;;17.50;99.90;;;;;;5089313;28;19973;-87
2021/09/05 10:14:23;;;;;;;;;;;17.50;99.90;;;;;;5113625;27;20522;-87
2021/09/05 10:16:48;;;;;;;;;;;17.50;99.90;;;;;;5110165;28;20426;-80
2021/09/05 10:19:14;;;;;;;;;;;17.60;99.90;;;;;;5123307;27;19931;-82
2021/09/05 10:21:40;;;;;;;;;;;17.60;99.90;;;;;;5070722;28;19924;-81
2021/09/05 10:24:13;;;;;;;;;;;17.60;99.90;;;;;;5121557;27;19930;-81
2021/09/05 10:26:57;;;;;;;;;;;17.60;99.90;;;;;;5105245;27;19923;-81
2021/09/05 10:29:23;;;;;;;;;;;17.70;99.90;;;;;;5095538;28;20388;-81
2021/09/05 10:31:48;;;;;;;;;;;17.70;99.90;;;;;;5092935;28;19920;-81
2021/09/05 10:34:33;;;;;;;;;;;17.70;99.90;;;;;;5070413;28;19920;-81
2021/09/05 10:37:06;;;;;;;;;;;17.80;99.90;;;;;;5107607;28;19927;-82
2021/09/05 10:39:32;;;;;;;;;;;17.90;99.90;;;;;;5096232;28;19928;-83
2021/09/05 10:41:58;;;;;;;;;;;17.90;99.90;;;;;;5110937;27;19972;-82
2021/09/05 10:44:23;;;;;;;;;;;17.90;99.90;;;;;;5118570;27;20458;-81
2021/09/05 10:46:51;;;;;;;;;;;18.00;99.90;;;;;;5103043;28;19924;-81
2021/09/05 10:49:17;;;;;;;;;;;18.00;99.90;;;;;;5124471;27;20016;-81
2021/09/05 10:51:48;;;;;;;;;;;18.00;99.90;;;;;;5090904;28;20345;-81
2021/09/05 10:54:23;;;;;;;;;;;18.10;99.90;;;;;;5088898;28;19930;-81
2021/09/05 10:56:49;;;;;;;;;;;18.10;99.90;;;;;;5090684;28;20378;-81
2021/09/05 10:59:24;;;;;;;;;;;18.20;99.90;;;;;;5089608;28;19924;-82
2021/09/05 11:01:49;;;;;;;;;;;18.20;99.90;;;;;;5094584;28;20351;-82
2021/09/05 11:04:16;;;;;;;;;;;18.20;99.90;;;;;;5105722;28;19962;-82
2021/09/05 11:06:50;;;;;;;;;;;18.30;99.90;;;;;;5089291;28;19981;-81
2021/09/05 11:12:23;;;;;;;;;;;18.30;99.90;;;;;;5106730;28;20275;-81
2021/09/05 11:14:49;;;;;;;;;;;18.40;99.90;;;;;;5084256;28;19920;-79
2021/09/05 11:17:16;;;;;;;;;;;18.40;99.90;;;;;;5115776;27;20375;-82
2021/09/05 11:19:47;;;;;;;;;;;18.40;99.90;;;;;;5107923;28;19932;-83
2021/09/05 11:22:24;;;;;;;;;;;18.50;99.90;;;;;;5092140;28;19945;-82
2021/09/05 11:25:09;;;;;;;;;;;18.50;99.90;;;;;;5088236;28;19923;-82
2021/09/05 11:27:36;;;;;;;;;;;18.50;99.90;;;;;;5085623;28;19953;-88
2021/09/05 11:30:04;;;;;;;;;;;18.60;99.90;;;;;;5107586;28;19970;-87
2021/09/05 11:32:29;;;;;;;;;;;18.60;99.90;;;;;;5096645;27;20374;-85
2021/09/05 11:34:56;;;;;;;;;;;18.60;99.90;;;;;;5073249;28;20050;-80
2021/09/05 11:37:28;;;;;;;;;;;18.60;99.90;;;;;;5076301;28;20755;-78
2021/09/05 11:39:53;;;;;;;;;;;18.70;99.90;;;;;;5097035;28;20398;-88
2021/09/05 11:42:19;;;;;;;;;;;18.70;99.90;;;;;;5069071;28;19963;-85
2021/09/05 11:44:44;;;;;;;;;;;18.80;99.90;;;;;;5091240;28;19924;-93
2021/09/05 11:47:11;;;;;;;;;;;18.80;99.90;;;;;;5074865;27;19919;-87
2021/09/05 11:49:50;;;;;;;;;;;18.80;99.90;;;;;;5122443;27;19967;-89
2021/09/05 11:52:26;;;;;;;;;;;18.80;99.90;;;;;;5100611;27;19926;-88
2021/09/05 11:55:00;;;;;;;;;;;18.90;99.90;;;;;;5101288;28;19962;-84
2021/09/05 11:57:25;;;;;;;;;;;18.90;99.90;;;;;;5090547;28;19924;-85
2021/09/05 11:59:55;;;;;;;;;;;18.90;99.90;;;;;;5090027;28;20402;-85
2021/09/05 12:02:26;;;;;;;;;;;19.00;99.90;;;;;;5105341;28;19928;-80
2021/09/05 12:04:52;;;;;;;;;;;19.00;99.90;;;;;;5122820;27;20927;-80
2021/09/05 12:07:18;;;;;;;;;;;19.00;99.90;;;;;;5120065;27;20001;-80
2021/09/05 12:09:43;;;;;;;;;;;19.10;99.90;;;;;;5071080;28;19983;-82
2021/09/05 12:12:09;;;;;;;;;;;19.10;99.90;;;;;;5107093;28;20417;-83
2021/09/05 12:14:35;;;;;;;;;;;19.10;99.90;;;;;;5070892;28;19924;-81
2021/09/05 12:17:16;;;;;;;;;;;19.20;99.90;;;;;;5105109;28;19943;-80
2021/09/05 12:20:03;;;;;;;;;;;19.20;99.90;;;;;;5095798;28;20046;-80
2021/09/05 12:22:48;;;;;;;;;;;19.20;99.90;;;;;;5100590;28;20365;-85
2021/09/05 12:25:18;;;;;;;;;;;19.30;99.90;;;;;;5102572;28;19924;-82
2021/09/05 12:28:07;;;;;;;;;;;19.30;99.90;;;;;;5104645;27;20030;-81
2021/09/05 12:30:37;;;;;;;;;;;19.30;99.90;;;;;;5069412;28;19927;-80
2021/09/05 12:33:12;;;;;;;;;;;19.40;99.90;;;;;;5084749;28;19923;-81
2021/09/05 12:35:39;;;;;;;;;;;19.40;99.90;;;;;;5110196;27;19919;-81
2021/09/05 12:38:12;;;;;;;;;;;19.40;99.90;;;;;;5095326;28;19919;-80
2021/09/05 12:40:41;;;;;;;;;;;19.40;99.90;;;;;;5117034;27;20302;-80
2021/09/05 12:43:07;;;;;;;;;;;19.40;99.90;;;;;;5098411;28;20060;-80
2021/09/05 12:45:33;;;;;;;;;;;19.50;99.90;;;;;;5086744;28;19993;-80
2021/09/05 12:48:18;;;;;;;;;;;19.50;99.90;;;;;;5099084;28;19924;-80
2021/09/05 12:50:44;;;;;;;;;;;19.50;99.90;;;;;;5119798;27;20418;-80
2021/09/05 12:53:16;;;;;;;;;;;19.60;99.90;;;;;;5085732;28;19931;-80
2021/09/05 12:55:42;;;;;;;;;;;19.60;99.90;;;;;;5086480;28;19931;-80
2021/09/05 12:58:08;;;;;;;;;;;19.60;99.90;;;;;;5103263;28;20377;-80
2021/09/05 13:00:34;;;;;;;;;;;19.60;99.90;;;;;;5065859;28;20301;-80
2021/09/05 13:03:01;;;;;;;;;;;19.60;99.90;;;;;;5086777;28;19931;-80
2021/09/05 13:05:27;;;;;;;;;;;19.70;99.90;;;;;;5076985;28;19924;-80
2021/09/05 13:07:53;;;;;;;;;;;19.70;99.90;;;;;;5087506;28;20437;-80
2021/09/05 13:10:18;;;;;;;;;;;19.70;99.90;;;;;;5087990;28;20647;-80
2021/09/05 13:12:44;;;;;;;;;;;19.70;99.90;;;;;;5103906;28;19923;-80
2021/09/05 13:15:10;;;;;;;;;;;19.80;99.90;;;;;;5104445;28;19926;-80
2021/09/05 13:17:36;;;;;;;;;;;19.80;99.90;;;;;;5075773;28;19920;-80
2021/09/05 13:20:02;;;;;;;;;;;19.80;99.90;;;;;;5087013;28;20015;-80
2021/09/05 13:22:27;;;;;;;;;;;19.80;99.90;;;;;;5085452;28;19923;-80
2021/09/05 13:24:53;;;;;;;;;;;19.80;99.90;;;;;;5087392;28;19924;-80
2021/09/05 13:27:19;;;;;;;;;;;19.80;99.90;;;;;;5103266;28;19949;-81
2021/09/05 13:29:44;;;;;;;;;;;19.80;99.90;;;;;;5071991;28;19920;-80
2021/09/05 13:32:10;;;;;;;;;;;19.80;99.90;;;;;;5081398;28;20023;-80
2021/09/05 13:34:35;;;;;;;;;;;19.80;99.90;;;;;;5081723;28;20308;-80
2021/09/05 13:37:01;;;;;;;;;;;19.80;99.90;;;;;;5120841;28;19957;-80
2021/09/05 13:39:26;;;;;;;;;;;19.80;99.90;;;;;;5069750;28;19928;-80
2021/09/05 13:41:52;;;;;;;;;;;19.80;99.90;;;;;;5087747;28;20014;-80
2021/09/05 13:44:18;;;;;;;;;;;19.80;99.90;;;;;;5090823;28;19923;-80
2021/09/05 13:46:43;;;;;;;;;;;19.80;99.90;;;;;;5090191;28;19923;-80
2021/09/05 13:49:09;;;;;;;;;;;19.80;99.90;;;;;;5107336;28;19972;-81
2021/09/05 13:51:34;;;;;;;;;;;19.80;99.90;;;;;;5077522;28;20363;-80
2021/09/05 13:54:00;;;;;;;;;;;19.80;99.90;;;;;;5072309;28;19931;-81
2021/09/05 13:56:25;;;;;;;;;;;19.80;99.90;;;;;;5086099;28;19931;-80
2021/09/05 13:58:51;;;;;;;;;;;19.90;99.90;;;;;;5123665;27;19924;-80
2021/09/05 14:01:17;;;;;;;;;;;19.90;99.90;;;;;;5089574;28;19928;-80
2021/09/05 14:03:42;;;;;;;;;;;19.90;99.90;;;;;;5099187;28;19968;-80
2021/09/05 14:06:08;;;;;;;;;;;19.90;99.90;;;;;;5070797;28;20027;-80
2021/09/05 14:08:33;;;;;;;;;;;19.90;99.90;;;;;;5119552;27;19923;-80
2021/09/05 14:10:59;;;;;;;;;;;19.90;99.90;;;;;;5072478;28;20253;-80
2021/09/05 14:13:25;;;;;;;;;;;19.90;99.90;;;;;;5097236;28;19924;-80
2021/09/05 14:15:50;;;;;;;;;;;19.90;99.90;;;;;;5090263;28;20455;-80